Time,TemperatureF,DewpointF,PressureIn,WindDirection,WindDirectionDegrees,WindSpeedMPH,WindSpeedGustMPH,Humidity,HourlyPrecipIn,Conditions,Clouds,dailyrainin,SoftwareType,DateUTC
2013-02-08 00:02:00,26.0,17.0,30.40,East,96,3.0,6.0,69,0.00,,,-99.99,,2013-02-08 05:02:00,
2013-02-08 00:12:00,26.0,17.0,30.40,East,96,3.0,6.0,69,0.00,,,-99.99,,2013-02-08 05:12:00,
2013-02-08 00:22:00,26.0,18.0,30.40,East,96,3.0,6.0,70,0.00,,,-99.99,,2013-02-08 05:22:00,
2013-02-08 00:32:00,26.0,18.0,30.39,ESE,117,5.0,9.0,71,0.00,,,-99.99,,2013-02-08 05:32:00,
2013-02-08 00:42:00,26.0,18.0,30.39,ESE,117,5.0,9.0,71,0.00,,,-99.99,,2013-02-08 05:42:00,
2013-02-08 00:52:00,26.0,17.0,30.37,East,88,3.0,7.0,69,0.00,,,-99.99,,2013-02-08 05:52:00,
2013-02-08 01:01:00,26.0,17.0,30.37,ENE,60,2.0,5.0,68,0.00,,,-99.99,,2013-02-08 06:01:00,
2013-02-08 01:11:00,26.0,17.0,30.37,ENE,60,2.0,5.0,68,0.00,,,-99.99,,2013-02-08 06:11:00,
2013-02-08 01:21:00,26.0,17.0,30.37,ENE,60,2.0,5.0,68,0.00,,,-99.99,,2013-02-08 06:21:00,
2013-02-08 01:32:00,26.0,14.0,30.36,East,91,3.0,5.0,60,0.00,,,-99.99,,2013-02-08 06:32:00,
2013-02-08 01:42:00,26.0,14.0,30.36,East,91,3.0,5.0,60,0.00,,,-99.99,,2013-02-08 06:42:00,
2013-02-08 01:52:00,26.0,14.0,30.36,East,91,3.0,5.0,60,0.00,,,-99.99,,2013-02-08 06:52:00,
2013-02-08 02:01:00,26.0,14.0,30.36,East,91,3.0,5.0,60,0.00,,,-99.99,,2013-02-08 07:01:00,
2013-02-08 02:11:00,26.0,19.0,30.35,ENE,73,3.0,6.0,73,0.00,,,-99.99,,2013-02-08 07:11:00,
2013-02-08 02:22:00,26.0,19.0,30.35,ENE,73,3.0,6.0,73,0.00,,,-99.99,,2013-02-08 07:22:00,
2013-02-08 02:32:00,26.0,19.0,30.35,East,84,3.0,6.0,73,0.00,,,-99.99,,2013-02-08 07:32:00,
2013-02-08 02:42:00,26.0,19.0,30.34,East,101,4.0,6.0,75,0.00,,,-99.99,,2013-02-08 07:42:00,
2013-02-08 02:52:00,26.0,19.0,30.34,East,101,4.0,6.0,75,0.00,,,-99.99,,2013-02-08 07:52:00,
2013-02-08 03:01:00,26.0,19.0,30.34,East,101,4.0,6.0,75,0.00,,,-99.99,,2013-02-08 08:01:00,
2013-02-08 03:11:00,26.0,20.0,30.32,ESE,108,2.0,6.0,77,0.00,,,-99.99,,2013-02-08 08:11:00,
2013-02-08 03:21:00,26.0,20.0,30.32,ESE,108,2.0,6.0,77,0.00,,,-99.99,,2013-02-08 08:21:00,
2013-02-08 03:32:00,26.0,20.0,30.32,ENE,63,2.0,4.0,77,0.00,,,-99.99,,2013-02-08 08:32:00,
2013-02-08 03:42:00,26.0,20.0,30.32,ENE,63,2.0,4.0,77,0.00,,,-99.99,,2013-02-08 08:42:00,
2013-02-08 03:52:00,26.0,20.0,30.32,ENE,63,2.0,4.0,77,0.00,,,-99.99,,2013-02-08 08:52:00,
2013-02-08 04:03:00,25.0,19.0,30.30,ENE,71,2.0,3.0,78,0.00,,,-99.99,,2013-02-08 09:03:00,
2013-02-08 04:11:00,25.0,19.0,30.30,ENE,71,2.0,3.0,78,0.00,,,-99.99,,2013-02-08 09:11:00,
2013-02-08 04:21:00,25.0,19.0,30.29,ENE,71,2.0,3.0,78,0.00,,,-99.99,,2013-02-08 09:21:00,
2013-02-08 04:32:00,25.0,19.0,30.28,ENE,71,2.0,3.0,78,0.00,,,-99.99,,2013-02-08 09:32:00,
2013-02-08 04:42:00,25.0,19.0,30.28,ENE,71,2.0,3.0,78,0.00,,,-99.99,,2013-02-08 09:42:00,
2013-02-08 04:52:00,25.0,19.0,30.27,ENE,71,2.0,3.0,78,0.00,,,-99.99,,2013-02-08 09:52:00,
2013-02-08 05:01:00,25.0,19.0,30.26,ENE,71,2.0,3.0,78,0.00,,,-99.99,,2013-02-08 10:01:00,
2013-02-08 05:12:00,25.0,19.0,30.26,ENE,71,2.0,3.0,78,0.00,,,-99.99,,2013-02-08 10:12:00,
2013-02-08 05:22:00,25.0,19.0,30.26,ENE,71,2.0,3.0,78,0.00,,,-99.99,,2013-02-08 10:22:00,
2013-02-08 05:32:00,25.0,19.0,30.26,ENE,71,2.0,3.0,78,0.00,,,-99.99,,2013-02-08 10:32:00,
2013-02-08 05:42:00,25.0,19.0,30.26,ENE,71,2.0,3.0,78,0.00,,,-99.99,,2013-02-08 10:42:00,
2013-02-08 05:52:00,25.0,19.0,30.24,ENE,71,2.0,3.0,78,0.00,,,-99.99,,2013-02-08 10:52:00,
2013-02-08 06:02:00,25.0,19.0,30.24,ENE,71,2.0,3.0,78,0.00,,,-99.99,,2013-02-08 11:02:00,
2013-02-08 06:11:00,25.0,19.0,30.24,ENE,71,2.0,3.0,78,0.00,,,-99.99,,2013-02-08 11:11:00,
2013-02-08 06:21:00,25.0,19.0,30.23,ENE,71,2.0,3.0,78,0.00,,,-99.99,,2013-02-08 11:21:00,
2013-02-08 06:32:00,25.0,19.0,30.23,ENE,71,2.0,3.0,78,0.00,,,-99.99,,2013-02-08 11:32:00,
2013-02-08 06:42:00,25.0,19.0,30.23,ENE,71,2.0,3.0,78,0.00,,,-99.99,,2013-02-08 11:42:00,
2013-02-08 06:52:00,25.0,19.0,30.23,ENE,71,2.0,3.0,78,0.00,,,-99.99,,2013-02-08 11:52:00,
2013-02-08 07:02:00,25.0,19.0,30.22,ENE,71,2.0,3.0,78,0.00,,,-99.99,,2013-02-08 12:02:00,
2013-02-08 07:11:00,25.0,19.0,30.22,ENE,71,2.0,3.0,78,0.00,,,-99.99,,2013-02-08 12:11:00,
2013-02-08 07:22:00,25.0,19.0,30.22,ENE,71,2.0,3.0,78,0.00,,,-99.99,,2013-02-08 12:22:00,
2013-02-08 07:33:00,25.0,19.0,30.22,ENE,71,2.0,3.0,78,0.00,,,-99.99,,2013-02-08 12:33:00,
2013-02-08 07:42:00,25.0,19.0,30.22,ENE,71,2.0,3.0,78,0.00,,,-99.99,,2013-02-08 12:42:00,
2013-02-08 07:52:00,25.0,19.0,30.19,ENE,71,2.0,3.0,78,0.00,,,-99.99,,2013-02-08 12:52:00,
2013-02-08 08:02:00,25.0,19.0,30.20,ENE,71,2.0,3.0,78,0.00,,,-99.99,,2013-02-08 13:02:00,
2013-02-08 08:12:00,25.0,19.0,30.20,ENE,71,2.0,3.0,78,0.00,,,-99.99,,2013-02-08 13:12:00,
2013-02-08 08:22:00,25.0,19.0,30.20,ENE,71,2.0,3.0,78,0.00,,,-99.99,,2013-02-08 13:22:00,
2013-02-08 08:32:00,29.0,27.0,30.18,ENE,71,2.0,3.0,93,0.00,,,-99.99,,2013-02-08 13:32:00,
2013-02-08 08:42:00,29.0,27.0,30.18,ENE,71,2.0,3.0,93,0.00,,,-99.99,,2013-02-08 13:42:00,
2013-02-08 08:52:00,29.0,27.0,30.18,ENE,71,2.0,3.0,93,0.00,,,-99.99,,2013-02-08 13:52:00,
2013-02-08 09:02:00,29.0,27.0,30.17,ENE,65,3.0,5.0,94,0.00,,,-99.99,,2013-02-08 14:02:00,
2013-02-08 09:11:00,29.0,27.0,30.17,ENE,65,3.0,5.0,94,0.00,,,-99.99,,2013-02-08 14:11:00,
2013-02-08 09:22:00,29.0,27.0,30.17,ENE,65,3.0,5.0,94,0.00,,,-99.99,,2013-02-08 14:22:00,
2013-02-08 09:32:00,29.0,27.0,30.17,ENE,65,3.0,5.0,94,0.00,,,-99.99,,2013-02-08 14:32:00,
2013-02-08 09:42:00,29.0,27.0,30.17,ENE,65,3.0,5.0,94,0.00,,,-99.99,,2013-02-08 14:42:00,
2013-02-08 10:02:00,30.0,29.0,30.14,East,82,4.0,7.0,96,0.00,,,-99.99,,2013-02-08 15:02:00,
2013-02-08 10:12:00,30.0,29.0,30.14,East,82,4.0,7.0,96,0.00,,,-99.99,,2013-02-08 15:12:00,
2013-02-08 10:22:00,30.0,29.0,30.14,East,82,4.0,7.0,96,0.00,,,-99.99,,2013-02-08 15:22:00,
2013-02-08 10:32:00,30.0,29.0,30.12,East,84,4.0,7.0,96,0.00,,,-99.99,,2013-02-08 15:32:00,
2013-02-08 10:42:00,30.0,29.0,30.12,East,84,4.0,7.0,96,0.00,,,-99.99,,2013-02-08 15:42:00,
2013-02-08 10:52:00,30.0,29.0,30.11,ENE,70,3.0,6.0,96,0.00,,,-99.99,,2013-02-08 15:52:00,
2013-02-08 11:02:00,30.0,29.0,30.11,ENE,70,3.0,6.0,96,0.00,,,-99.99,,2013-02-08 16:02:00,
2013-02-08 11:11:00,30.0,29.0,30.11,ENE,70,3.0,6.0,96,0.00,,,-99.99,,2013-02-08 16:11:00,
2013-02-08 11:22:00,30.0,29.0,30.09,ENE,61,4.0,10.0,96,0.00,,,-99.99,,2013-02-08 16:22:00,
2013-02-08 11:32:00,30.0,29.0,30.06,ENE,63,4.0,9.0,97,0.00,,,-99.99,,2013-02-08 16:32:00,
2013-02-08 11:42:00,30.0,29.0,30.06,ENE,63,4.0,9.0,97,0.00,,,-99.99,,2013-02-08 16:42:00,
2013-02-08 11:52:00,30.0,29.0,30.06,NE,51,4.0,8.0,97,0.00,,,-99.99,,2013-02-08 16:52:00,
2013-02-08 12:04:00,30.0,29.0,30.04,ESE,107,3.0,5.0,97,0.00,,,-99.99,,2013-02-08 17:04:00,
2013-02-08 12:12:00,30.0,29.0,30.04,ESE,107,3.0,5.0,97,0.00,,,-99.99,,2013-02-08 17:12:00,
2013-02-08 12:23:00,30.0,29.0,30.01,NE,56,4.0,8.0,97,0.00,,,-99.99,,2013-02-08 17:23:00,
2013-02-08 12:33:00,30.0,29.0,30.00,ENE,74,3.0,6.0,97,0.00,,,-99.99,,2013-02-08 17:33:00,
2013-02-08 12:42:00,30.0,29.0,30.00,ENE,74,3.0,6.0,97,0.00,,,-99.99,,2013-02-08 17:42:00,
2013-02-08 12:53:00,30.0,29.0,29.99,ENE,64,4.0,6.0,97,0.00,,,-99.99,,2013-02-08 17:53:00,
2013-02-08 13:02:00,30.0,29.0,29.98,ENE,65,4.0,11.0,97,0.00,,,-99.99,,2013-02-08 18:02:00,
2013-02-08 13:12:00,30.0,29.0,29.98,ENE,65,4.0,11.0,97,0.00,,,-99.99,,2013-02-08 18:12:00,
2013-02-08 13:24:00,30.0,29.0,29.96,NNE,32,4.0,6.0,97,0.00,,,-99.99,,2013-02-08 18:24:00,
2013-02-08 13:35:00,30.0,29.0,29.94,NE,42,4.0,8.0,98,0.00,,,-99.99,,2013-02-08 18:35:00,
2013-02-08 13:43:00,30.0,29.0,29.94,NE,42,4.0,8.0,98,0.00,,,-99.99,,2013-02-08 18:43:00,
2013-02-08 13:52:00,30.0,29.0,29.93,ENE,69,3.0,7.0,98,0.00,,,-99.99,,2013-02-08 18:52:00,
2013-02-08 14:02:00,30.0,29.0,29.93,ENE,69,3.0,7.0,98,0.00,,,-99.99,,2013-02-08 19:02:00,
2013-02-08 14:11:00,30.0,29.0,29.93,ENE,69,3.0,7.0,98,0.00,,,-99.99,,2013-02-08 19:11:00,
2013-02-08 14:22:00,30.0,29.0,29.93,ENE,69,3.0,7.0,98,0.00,,,-99.99,,2013-02-08 19:22:00,
2013-02-08 14:33:00,31.0,31.0,29.88,NNE,16,4.0,7.0,98,0.00,,,-99.99,,2013-02-08 19:33:00,
2013-02-08 14:42:00,31.0,31.0,29.88,NNE,16,4.0,7.0,98,0.00,,,-99.99,,2013-02-08 19:42:00,
2013-02-08 14:52:00,31.0,31.0,29.88,NNE,16,4.0,7.0,98,0.00,,,-99.99,,2013-02-08 19:52:00,
2013-02-08 15:02:00,31.0,31.0,29.85,ENE,68,4.0,8.0,98,0.00,,,-99.99,,2013-02-08 20:02:00,
2013-02-08 15:12:00,31.0,31.0,29.85,ENE,68,4.0,8.0,98,0.00,,,-99.99,,2013-02-08 20:12:00,
2013-02-08 15:22:00,31.0,31.0,29.83,ENE,71,5.0,11.0,98,0.00,,,-99.99,,2013-02-08 20:22:00,
2013-02-08 15:32:00,31.0,31.0,29.81,NE,35,5.0,12.0,98,0.00,,,-99.99,,2013-02-08 20:32:00,
2013-02-08 15:42:00,31.0,31.0,29.81,NE,35,5.0,12.0,98,0.00,,,-99.99,,2013-02-08 20:42:00,
2013-02-08 15:52:00,31.0,31.0,29.80,ENE,62,5.0,11.0,98,0.00,,,-99.99,,2013-02-08 20:52:00,
2013-02-08 16:02:00,31.0,31.0,29.79,NE,46,4.0,8.0,98,0.00,,,-99.99,,2013-02-08 21:02:00,
2013-02-08 16:11:00,31.0,31.0,29.79,NE,46,4.0,8.0,98,0.00,,,-99.99,,2013-02-08 21:11:00,
2013-02-08 16:22:00,31.0,31.0,29.76,ENE,60,5.0,12.0,99,0.00,,,-99.99,,2013-02-08 21:22:00,
2013-02-08 16:32:00,31.0,31.0,29.75,ENE,63,5.0,12.0,99,0.00,,,-99.99,,2013-02-08 21:32:00,
2013-02-08 16:42:00,31.0,31.0,29.75,ENE,63,5.0,12.0,99,0.00,,,-99.99,,2013-02-08 21:42:00,
2013-02-08 16:52:00,31.0,31.0,29.74,NE,49,6.0,14.0,99,0.00,,,-99.99,,2013-02-08 21:52:00,
2013-02-08 17:02:00,31.0,31.0,29.74,NE,53,5.0,13.0,99,0.00,,,-99.99,,2013-02-08 22:02:00,
2013-02-08 17:11:00,31.0,31.0,29.74,NE,53,5.0,13.0,99,0.00,,,-99.99,,2013-02-08 22:11:00,
2013-02-08 17:22:00,31.0,31.0,29.73,NE,39,5.0,10.0,99,0.00,,,-99.99,,2013-02-08 22:22:00,
2013-02-08 17:32:00,31.0,31.0,29.72,ENE,61,6.0,14.0,99,0.00,,,-99.99,,2013-02-08 22:32:00,
2013-02-08 17:42:00,31.0,31.0,29.72,ENE,61,6.0,14.0,99,0.00,,,-99.99,,2013-02-08 22:42:00,
2013-02-08 17:52:00,31.0,31.0,29.71,NE,48,6.0,14.0,99,0.00,,,-99.99,,2013-02-08 22:52:00,
2013-02-08 18:01:00,31.0,31.0,29.70,NE,43,5.0,10.0,99,0.00,,,-99.99,,2013-02-08 23:01:00,
2013-02-08 18:11:00,31.0,31.0,29.70,NE,43,5.0,10.0,99,0.00,,,-99.99,,2013-02-08 23:11:00,
2013-02-08 18:21:00,30.0,30.0,29.70,ENE,70,4.0,10.0,99,0.00,,,-99.99,,2013-02-08 23:21:00,
2013-02-08 18:32:00,29.0,29.0,29.68,NNE,27,4.0,12.0,98,0.00,,,-99.99,,2013-02-08 23:32:00,
2013-02-08 18:42:00,29.0,29.0,29.68,NNE,27,4.0,12.0,98,0.00,,,-99.99,,2013-02-08 23:42:00,
2013-02-08 18:52:00,28.0,28.0,29.67,ESE,105,5.0,10.0,98,0.00,,,-99.99,,2013-02-08 23:52:00,
2013-02-08 19:02:00,28.0,28.0,29.65,NNE,31,4.0,11.0,98,0.00,,,-99.99,,2013-02-09 00:02:00,
2013-02-08 19:11:00,28.0,28.0,29.65,NNE,31,4.0,11.0,98,0.00,,,-99.99,,2013-02-09 00:11:00,
2013-02-08 19:22:00,28.0,28.0,29.64,NE,51,7.0,17.0,98,0.00,,,-99.99,,2013-02-09 00:22:00,
2013-02-08 19:32:00,28.0,28.0,29.64,NE,51,7.0,17.0,98,0.00,,,-99.99,,2013-02-09 00:32:00,
2013-02-08 19:42:00,28.0,28.0,29.64,NE,51,7.0,17.0,98,0.00,,,-99.99,,2013-02-09 00:42:00,
2013-02-08 19:52:00,28.0,28.0,29.62,NE,39,6.0,13.0,98,0.00,,,-99.99,,2013-02-09 00:52:00,
2013-02-08 20:02:00,27.0,27.0,29.60,NE,51,6.0,13.0,98,0.00,,,-99.99,,2013-02-09 01:02:00,
2013-02-08 20:12:00,27.0,27.0,29.60,NE,51,6.0,13.0,98,0.00,,,-99.99,,2013-02-09 01:12:00,
2013-02-08 20:22:00,27.0,27.0,29.60,NE,51,6.0,13.0,98,0.00,,,-99.99,,2013-02-09 01:22:00,
2013-02-08 20:32:00,27.0,27.0,29.60,NE,51,6.0,13.0,98,0.00,,,-99.99,,2013-02-09 01:32:00,
2013-02-08 20:42:00,27.0,27.0,29.60,NE,51,6.0,13.0,98,0.00,,,-99.99,,2013-02-09 01:42:00,
2013-02-08 20:52:00,26.0,26.0,29.58,NE,56,6.0,15.0,98,0.00,,,-99.99,,2013-02-09 01:52:00,
2013-02-08 21:02:00,26.0,26.0,29.58,NE,56,6.0,15.0,98,0.00,,,-99.99,,2013-02-09 02:02:00,
2013-02-08 21:11:00,26.0,26.0,29.55,NE,36,7.0,23.0,98,0.00,,,-99.99,,2013-02-09 02:11:00,
2013-02-08 21:21:00,26.0,26.0,29.55,NE,36,7.0,23.0,98,0.00,,,-99.99,,2013-02-09 02:21:00,
2013-02-08 21:32:00,26.0,26.0,29.55,ENE,58,7.0,16.0,98,0.00,,,-99.99,,2013-02-09 02:32:00,
2013-02-08 21:42:00,26.0,26.0,29.55,ENE,58,7.0,16.0,98,0.00,,,-99.99,,2013-02-09 02:42:00,
2013-02-08 21:53:00,26.0,26.0,29.55,NE,51,5.0,17.0,98,0.00,,,-99.99,,2013-02-09 02:53:00,
2013-02-08 22:02:00,26.0,26.0,29.55,East,80,7.0,15.0,98,0.00,,,-99.99,,2013-02-09 03:02:00,
2013-02-08 22:11:00,26.0,26.0,29.55,East,80,7.0,15.0,98,0.00,,,-99.99,,2013-02-09 03:11:00,
2013-02-08 22:22:00,26.0,26.0,29.56,NE,49,7.0,16.0,98,0.00,,,-99.99,,2013-02-09 03:22:00,
2013-02-08 22:32:00,25.0,25.0,29.55,NE,53,7.0,13.0,98,0.00,,,-99.99,,2013-02-09 03:32:00,
2013-02-08 22:42:00,25.0,25.0,29.55,NE,53,7.0,13.0,98,0.00,,,-99.99,,2013-02-09 03:42:00,
2013-02-08 22:52:00,25.0,25.0,29.55,NE,46,7.0,13.0,98,0.00,,,-99.99,,2013-02-09 03:52:00,
2013-02-08 23:03:00,24.0,23.0,29.55,NE,50,5.0,10.0,97,0.00,,,-99.99,,2013-02-09 04:03:00,
2013-02-08 23:12:00,24.0,23.0,29.56,NNE,29,7.0,15.0,97,0.00,,,-99.99,,2013-02-09 04:12:00,
2013-02-08 23:23:00,24.0,23.0,29.56,NNE,29,7.0,15.0,97,0.00,,,-99.99,,2013-02-09 04:23:00,
2013-02-08 23:32:00,24.0,23.0,29.57,NNE,12,6.0,17.0,97,0.00,,,-99.99,,2013-02-09 04:32:00,
2013-02-08 23:42:00,24.0,23.0,29.57,NNE,12,6.0,17.0,97,0.00,,,-99.99,,2013-02-09 04:42:00,
2013-02-08 23:52:00,24.0,23.0,29.57,NNE,27,6.0,17.0,97,0.00,,,-99.99,,2013-02-09 04:52:00,